sensor_id;sensor_type;location;lat;lon;timestamp;temperature;humidity
45868;DHT22;31582;45.490;7.860;2023-05-03T00:01:45;15.90;98.10
45868;DHT22;31582;45.490;7.860;2023-05-03T00:04:15;15.90;98.20
45868;DHT22;31582;45.490;7.860;2023-05-03T00:06:43;15.80;98.60
45868;DHT22;31582;45.490;7.860;2023-05-03T00:09:10;15.90;98.90
45868;DHT22;31582;45.490;7.860;2023-05-03T00:11:37;15.80;98.80
45868;DHT22;31582;45.490;7.860;2023-05-03T00:14:04;15.80;98.80
45868;DHT22;31582;45.490;7.860;2023-05-03T00:16:31;15.80;99.00
45868;DHT22;31582;45.490;7.860;2023-05-03T00:18:58;15.80;98.80
45868;DHT22;31582;45.490;7.860;2023-05-03T00:21:25;15.80;98.60
45868;DHT22;31582;45.490;7.860;2023-05-03T00:23:52;15.80;98.60
45868;DHT22;31582;45.490;7.860;2023-05-03T00:26:19;15.80;98.60
45868;DHT22;31582;45.490;7.860;2023-05-03T00:28:47;15.80;98.90
45868;DHT22;31582;45.490;7.860;2023-05-03T00:31:14;15.80;99.30
45868;DHT22;31582;45.490;7.860;2023-05-03T00:33:41;15.70;99.80
45868;DHT22;31582;45.490;7.860;2023-05-03T00:36:10;15.70;99.90
45868;DHT22;31582;45.490;7.860;2023-05-03T00:38:37;15.70;99.90
45868;DHT22;31582;45.490;7.860;2023-05-03T00:41:05;15.60;99.90
45868;DHT22;31582;45.490;7.860;2023-05-03T00:43:33;15.50;99.90
45868;DHT22;31582;45.490;7.860;2023-05-03T00:46:02;15.50;99.90
45868;DHT22;31582;45.490;7.860;2023-05-03T00:48:43;15.40;99.90
45868;DHT22;31582;45.490;7.860;2023-05-03T00:51:12;15.40;99.90
45868;DHT22;31582;45.490;7.860;2023-05-03T00:53:41;15.30;99.90
45868;DHT22;31582;45.490;7.860;2023-05-03T00:56:08;15.30;99.90
45868;DHT22;31582;45.490;7.860;2023-05-03T00:58:36;15.30;99.90
45868;DHT22;31582;45.490;7.860;2023-05-03T01:01:06;15.20;99.90
45868;DHT22;31582;45.490;7.860;2023-05-03T17:52:53;21.70;50.00
45868;DHT22;31582;45.490;7.860;2023-05-03T17:55:20;21.60;51.00
45868;DHT22;31582;45.490;7.860;2023-05-03T17:57:49;21.50;52.00
45868;DHT22;31582;45.490;7.860;2023-05-03T18:00:17;21.40;52.60
45868;DHT22;31582;45.490;7.860;2023-05-03T18:02:44;21.30;53.00
45868;DHT22;31582;45.490;7.860;2023-05-03T18:05:11;21.10;53.60
45868;DHT22;31582;45.490;7.860;2023-05-03T18:07:38;21.10;54.40
45868;DHT22;31582;45.490;7.860;2023-05-03T18:10:06;21.00;55.30
45868;DHT22;31582;45.490;7.860;2023-05-03T18:12:33;20.90;56.10
45868;DHT22;31582;45.490;7.860;2023-05-03T18:15:00;20.70;56.80
45868;DHT22;31582;45.490;7.860;2023-05-03T18:17:30;20.60;57.40
45868;DHT22;31582;45.490;7.860;2023-05-03T18:19:57;20.50;57.80
45868;DHT22;31582;45.490;7.860;2023-05-03T18:22:24;20.40;58.40
45868;DHT22;31582;45.490;7.860;2023-05-03T18:24:53;20.30;59.00
45868;DHT22;31582;45.490;7.860;2023-05-03T18:27:20;20.20;59.30
45868;DHT22;31582;45.490;7.860;2023-05-03T18:29:50;20.10;59.80
45868;DHT22;31582;45.490;7.860;2023-05-03T18:32:17;20.00;60.50
45868;DHT22;31582;45.490;7.860;2023-05-03T18:34:44;19.90;60.80
45868;DHT22;31582;45.490;7.860;2023-05-03T18:37:11;19.80;61.70
45868;DHT22;31582;45.490;7.860;2023-05-03T18:39:38;19.80;62.10
45868;DHT22;31582;45.490;7.860;2023-05-03T18:42:05;19.70;62.20
45868;DHT22;31582;45.490;7.860;2023-05-03T18:44:32;19.60;62.30
45868;DHT22;31582;45.490;7.860;2023-05-03T18:47:00;19.50;62.90
45868;DHT22;31582;45.490;7.860;2023-05-03T18:49:27;19.40;63.00
45868;DHT22;31582;45.490;7.860;2023-05-03T18:51:54;19.30;63.20
45868;DHT22;31582;45.490;7.860;2023-05-03T18:54:21;19.20;63.00
45868;DHT22;31582;45.490;7.860;2023-05-03T18:56:48;19.20;63.20
45868;DHT22;31582;45.490;7.860;2023-05-03T18:59:15;19.10;63.20
45868;DHT22;31582;45.490;7.860;2023-05-03T19:01:42;19.00;63.40
45868;DHT22;31582;45.490;7.860;2023-05-03T19:04:09;18.90;64.20
45868;DHT22;31582;45.490;7.860;2023-05-03T19:06:35;18.90;65.30
45868;DHT22;31582;45.490;7.860;2023-05-03T19:09:02;18.90;69.00
45868;DHT22;31582;45.490;7.860;2023-05-03T19:11:29;18.80;69.70
45868;DHT22;31582;45.490;7.860;2023-05-03T19:13:56;18.80;72.30
45868;DHT22;31582;45.490;7.860;2023-05-03T19:16:23;18.80;73.10
45868;DHT22;31582;45.490;7.860;2023-05-03T19:18:50;18.70;71.70
45868;DHT22;31582;45.490;7.860;2023-05-03T19:21:17;18.80;71.30
45868;DHT22;31582;45.490;7.860;2023-05-03T19:23:45;18.70;70.30
45868;DHT22;31582;45.490;7.860;2023-05-03T19:26:12;18.70;69.60
45868;DHT22;31582;45.490;7.860;2023-05-03T19:28:39;18.70;69.30
45868;DHT22;31582;45.490;7.860;2023-05-03T19:31:06;18.70;68.90
45868;DHT22;31582;45.490;7.860;2023-05-03T19:33:33;18.60;68.80
45868;DHT22;31582;45.490;7.860;2023-05-03T19:35:59;18.60;69.00
45868;DHT22;31582;45.490;7.860;2023-05-03T19:38:33;18.60;69.20
45868;DHT22;31582;45.490;7.860;2023-05-03T19:41:01;18.60;69.10
45868;DHT22;31582;45.490;7.860;2023-05-03T19:43:38;18.60;68.80
45868;DHT22;31582;45.490;7.860;2023-05-03T19:46:06;18.50;68.50
45868;DHT22;31582;45.490;7.860;2023-05-03T19:48:33;18.50;68.70
45868;DHT22;31582;45.490;7.860;2023-05-03T19:51:00;18.50;68.60
45868;DHT22;31582;45.490;7.860;2023-05-03T19:53:28;18.50;68.70
45868;DHT22;31582;45.490;7.860;2023-05-03T19:55:56;18.40;69.30
45868;DHT22;31582;45.490;7.860;2023-05-03T19:58:24;18.40;69.00
45868;DHT22;31582;45.490;7.860;2023-05-03T20:00:52;18.40;69.40
45868;DHT22;31582;45.490;7.860;2023-05-03T20:03:21;18.30;69.60
45868;DHT22;31582;45.490;7.860;2023-05-03T20:05:49;18.30;70.20
45868;DHT22;31582;45.490;7.860;2023-05-03T20:08:16;18.30;70.60
45868;DHT22;31582;45.490;7.860;2023-05-03T20:10:43;18.30;71.40
45868;DHT22;31582;45.490;7.860;2023-05-03T20:13:12;18.30;72.20
45868;DHT22;31582;45.490;7.860;2023-05-03T20:15:39;18.20;73.20
45868;DHT22;31582;45.490;7.860;2023-05-03T20:18:07;18.20;73.10
45868;DHT22;31582;45.490;7.860;2023-05-03T20:20:34;18.20;72.30
45868;DHT22;31582;45.490;7.860;2023-05-03T20:23:02;18.20;71.50
45868;DHT22;31582;45.490;7.860;2023-05-03T20:25:29;18.20;70.80
45868;DHT22;31582;45.490;7.860;2023-05-03T20:27:55;18.20;70.60
45868;DHT22;31582;45.490;7.860;2023-05-03T20:30:22;18.10;70.50
45868;DHT22;31582;45.490;7.860;2023-05-03T20:32:50;18.10;69.70
45868;DHT22;31582;45.490;7.860;2023-05-03T20:35:17;18.10;69.40
45868;DHT22;31582;45.490;7.860;2023-05-03T20:37:46;18.10;69.40
45868;DHT22;31582;45.490;7.860;2023-05-03T20:40:13;18.10;70.00
45868;DHT22;31582;45.490;7.860;2023-05-03T20:42:41;18.10;70.60
45868;DHT22;31582;45.490;7.860;2023-05-03T20:45:08;18.10;71.00
45868;DHT22;31582;45.490;7.860;2023-05-03T20:47:35;18.10;71.70
45868;DHT22;31582;45.490;7.860;2023-05-03T20:50:02;18.10;73.40
45868;DHT22;31582;45.490;7.860;2023-05-03T20:52:29;18.10;72.30
45868;DHT22;31582;45.490;7.860;2023-05-03T20:54:57;18.10;72.00
45868;DHT22;31582;45.490;7.860;2023-05-03T20:57:24;18.00;71.90
45868;DHT22;31582;45.490;7.860;2023-05-03T20:59:51;18.00;72.30
45868;DHT22;31582;45.490;7.860;2023-05-03T21:02:18;18.00;73.30
45868;DHT22;31582;45.490;7.860;2023-05-03T21:04:45;18.00;73.80
45868;DHT22;31582;45.490;7.860;2023-05-03T21:07:11;17.90;74.90
45868;DHT22;31582;45.490;7.860;2023-05-03T21:09:38;17.90;75.30
45868;DHT22;31582;45.490;7.860;2023-05-03T21:12:05;17.90;76.20
45868;DHT22;31582;45.490;7.860;2023-05-03T21:14:32;17.80;77.00
45868;DHT22;31582;45.490;7.860;2023-05-03T21:16:59;17.80;77.70
45868;DHT22;31582;45.490;7.860;2023-05-03T21:19:27;17.70;78.70
45868;DHT22;31582;45.490;7.860;2023-05-03T21:21:53;17.70;78.30
45868;DHT22;31582;45.490;7.860;2023-05-03T21:24:20;17.70;78.60
45868;DHT22;31582;45.490;7.860;2023-05-03T21:26:50;17.60;78.60
45868;DHT22;31582;45.490;7.860;2023-05-03T21:29:17;17.50;79.80
45868;DHT22;31582;45.490;7.860;2023-05-03T21:31:44;17.40;79.40
45868;DHT22;31582;45.490;7.860;2023-05-03T21:34:11;17.40;79.50
45868;DHT22;31582;45.490;7.860;2023-05-03T21:36:38;17.30;79.70
45868;DHT22;31582;45.490;7.860;2023-05-03T21:39:05;17.20;79.30
45868;DHT22;31582;45.490;7.860;2023-05-03T21:41:32;17.20;79.30
45868;DHT22;31582;45.490;7.860;2023-05-03T21:44:01;17.10;79.40
45868;DHT22;31582;45.490;7.860;2023-05-03T21:46:28;17.00;79.80
45868;DHT22;31582;45.490;7.860;2023-05-03T21:48:55;16.90;80.00
45868;DHT22;31582;45.490;7.860;2023-05-03T21:51:24;16.90;80.90
45868;DHT22;31582;45.490;7.860;2023-05-03T21:53:51;16.80;81.40
45868;DHT22;31582;45.490;7.860;2023-05-03T21:56:18;16.70;81.50
45868;DHT22;31582;45.490;7.860;2023-05-03T21:58:45;16.70;83.00
45868;DHT22;31582;45.490;7.860;2023-05-03T22:01:14;16.60;83.10
45868;DHT22;31582;45.490;7.860;2023-05-03T22:03:43;16.50;83.60
45868;DHT22;31582;45.490;7.860;2023-05-03T22:06:10;16.50;83.90
45868;DHT22;31582;45.490;7.860;2023-05-03T22:08:37;16.40;85.20
45868;DHT22;31582;45.490;7.860;2023-05-03T22:11:04;16.40;85.20
45868;DHT22;31582;45.490;7.860;2023-05-03T22:13:34;16.30;87.90
45868;DHT22;31582;45.490;7.860;2023-05-03T22:16:20;16.30;89.50
45868;DHT22;31582;45.490;7.860;2023-05-03T22:18:47;16.20;91.10
45868;DHT22;31582;45.490;7.860;2023-05-03T22:21:14;16.20;91.70
45868;DHT22;31582;45.490;7.860;2023-05-03T22:23:42;16.10;92.30
45868;DHT22;31582;45.490;7.860;2023-05-03T22:26:08;16.10;92.90
45868;DHT22;31582;45.490;7.860;2023-05-03T22:28:35;16.10;92.90
45868;DHT22;31582;45.490;7.860;2023-05-03T22:31:02;16.10;94.50
45868;DHT22;31582;45.490;7.860;2023-05-03T22:33:29;16.10;93.90
45868;DHT22;31582;45.490;7.860;2023-05-03T22:35:56;16.10;95.20
45868;DHT22;31582;45.490;7.860;2023-05-03T22:38:23;16.10;94.80
45868;DHT22;31582;45.490;7.860;2023-05-03T22:40:50;16.10;94.70
45868;DHT22;31582;45.490;7.860;2023-05-03T22:43:17;16.10;95.20
45868;DHT22;31582;45.490;7.860;2023-05-03T22:45:44;16.10;94.70
45868;DHT22;31582;45.490;7.860;2023-05-03T22:48:11;16.10;94.00
45868;DHT22;31582;45.490;7.860;2023-05-03T22:50:38;16.10;93.70
45868;DHT22;31582;45.490;7.860;2023-05-03T22:53:05;16.10;94.00
45868;DHT22;31582;45.490;7.860;2023-05-03T22:55:32;16.20;93.80
45868;DHT22;31582;45.490;7.860;2023-05-03T22:57:59;16.20;93.70
45868;DHT22;31582;45.490;7.860;2023-05-03T23:00:26;16.20;93.40
45868;DHT22;31582;45.490;7.860;2023-05-03T23:02:53;16.20;93.50
45868;DHT22;31582;45.490;7.860;2023-05-03T23:05:20;16.20;93.40
45868;DHT22;31582;45.490;7.860;2023-05-03T23:07:47;16.20;93.60
45868;DHT22;31582;45.490;7.860;2023-05-03T23:10:14;16.30;94.00
45868;DHT22;31582;45.490;7.860;2023-05-03T23:12:41;16.30;94.10
45868;DHT22;31582;45.490;7.860;2023-05-03T23:15:08;16.30;94.30
45868;DHT22;31582;45.490;7.860;2023-05-03T23:17:35;16.30;94.20
45868;DHT22;31582;45.490;7.860;2023-05-03T23:20:03;16.30;94.90
45868;DHT22;31582;45.490;7.860;2023-05-03T23:22:31;16.30;94.60
45868;DHT22;31582;45.490;7.860;2023-05-03T23:24:58;16.30;94.50
45868;DHT22;31582;45.490;7.860;2023-05-03T23:27:25;16.30;94.30
45868;DHT22;31582;45.490;7.860;2023-05-03T23:29:53;16.30;94.90
45868;DHT22;31582;45.490;7.860;2023-05-03T23:32:20;16.40;94.60
45868;DHT22;31582;45.490;7.860;2023-05-03T23:34:47;16.40;94.40
45868;DHT22;31582;45.490;7.860;2023-05-03T23:37:14;16.40;94.60
45868;DHT22;31582;45.490;7.860;2023-05-03T23:39:45;16.40;95.40
45868;DHT22;31582;45.490;7.860;2023-05-03T23:42:12;16.40;95.50
45868;DHT22;31582;45.490;7.860;2023-05-03T23:44:39;16.40;95.50
45868;DHT22;31582;45.490;7.860;2023-05-03T23:47:19;16.40;96.10
45868;DHT22;31582;45.490;7.860;2023-05-03T23:49:46;16.40;98.20
45868;DHT22;31582;45.490;7.860;2023-05-03T23:52:13;16.40;98.20
45868;DHT22;31582;45.490;7.860;2023-05-03T23:54:42;16.40;99.90
45868;DHT22;31582;45.490;7.860;2023-05-03T23:57:09;16.40;99.20
45868;DHT22;31582;45.490;7.860;2023-05-03T23:59:36;16.30;99.70
